Time;durP1;ratioP1;P1;durP2;ratioP2;P2;SDS_P1;SDS_P2;PMS_P1;PMS_P2;Temp;Humidity;BMP_temperature;BMP_pressure;BME280_temperature;BME280_humidity;BME280_pressure;Samples;Min_cycle;Max_cycle;Signal;HPM_P1;HPM_P2
2022/08/20 07:35:13;;;;;;;11.35;10.15;;;20.90;99.90;;;;;;5104292;27;20395;-55
2022/08/20 07:37:47;;;;;;;13.18;11.48;;;21.00;99.90;;;;;;5123687;28;20042;-53
2022/08/20 07:40:18;;;;;;;12.30;11.02;;;21.00;99.90;;;;;;5085927;28;20089;-53
2022/08/20 07:42:44;;;;;;;15.65;13.20;;;21.00;99.90;;;;;;5100609;28;20036;-52
2022/08/20 07:45:12;;;;;;;13.65;11.25;;;21.10;99.90;;;;;;5105690;28;20042;-53
2022/08/20 07:47:40;;;;;;;14.68;12.02;;;21.10;99.90;;;;;;5123982;28;20039;-56
2022/08/20 07:50:08;;;;;;;14.88;13.07;;;21.10;99.90;;;;;;5106014;28;20397;-55
2022/08/20 07:52:34;;;;;;;15.35;12.70;;;21.10;99.90;;;;;;5122677;28;20046;-52
2022/08/20 07:55:05;;;;;;;14.75;13.10;;;21.10;99.90;;;;;;5106203;27;20032;-53
2022/08/20 07:57:31;;;;;;;14.75;11.90;;;21.00;99.90;;;;;;5102312;28;20040;-54
2022/08/20 07:59:57;;;;;;;18.52;13.90;;;21.10;99.90;;;;;;5109246;28;20085;-54
2022/08/20 08:02:23;;;;;;;14.75;13.20;;;21.10;99.90;;;;;;5124302;28;20027;-56
2022/08/20 08:04:49;;;;;;;15.45;12.52;;;21.10;99.90;;;;;;5106065;28;20566;-55
2022/08/20 08:07:15;;;;;;;17.13;13.25;;;21.10;99.90;;;;;;5123180;28;20161;-55
2022/08/20 08:09:43;;;;;;;14.55;12.95;;;21.10;99.90;;;;;;5124910;28;20030;-52
2022/08/20 08:12:11;;;;;;;15.73;13.30;;;21.10;99.90;;;;;;5109777;27;20038;-53
2022/08/20 08:14:38;;;;;;;11.77;10.63;;;21.20;99.90;;;;;;5125752;27;20119;-54
2022/08/20 08:17:04;;;;;;;17.83;13.55;;;21.20;99.90;;;;;;5108980;27;20069;-56
2022/08/20 08:19:37;;;;;;;15.07;13.32;;;21.20;99.90;;;;;;5125923;27;20019;-56
2022/08/20 08:22:05;;;;;;;13.95;12.50;;;21.30;99.90;;;;;;5093130;28;20031;-55
2022/08/20 08:24:31;;;;;;;14.80;12.75;;;21.30;99.90;;;;;;5125755;28;20022;-56
2022/08/20 08:26:56;;;;;;;12.90;11.60;;;21.40;99.90;;;;;;5107944;28;20031;-56
2022/08/20 08:29:22;;;;;;;13.63;11.73;;;21.40;99.90;;;;;;5125367;28;20023;-52
2022/08/20 08:31:47;;;;;;;13.38;11.38;;;21.40;99.90;;;;;;5106265;28;20396;-52
2022/08/20 08:34:13;;;;;;;15.18;13.57;;;21.50;99.90;;;;;;5113223;27;20036;-55
2022/08/20 08:36:39;;;;;;;17.75;15.50;;;21.70;99.90;;;;;;5122961;28;20034;-53
2022/08/20 08:39:05;;;;;;;13.07;11.68;;;21.70;99.90;;;;;;5125547;27;20102;-56
2022/08/20 08:41:38;;;;;;;14.93;12.73;;;21.80;99.90;;;;;;5105345;27;20137;-55
2022/08/20 08:44:11;;;;;;;14.40;12.90;;;22.00;99.90;;;;;;5104812;28;20110;-51
2022/08/20 08:46:44;;;;;;;13.73;11.93;;;22.00;99.90;;;;;;5069668;28;20035;-55
2022/08/20 08:49:19;;;;;;;12.93;11.60;;;22.10;99.90;;;;;;5111941;28;20601;-52
2022/08/20 08:52:07;;;;;;;11.32;10.25;;;22.10;99.90;;;;;;5072143;28;20032;-55
2022/08/20 08:54:33;;;;;;;12.32;10.90;;;22.20;99.90;;;;;;5111113;28;20047;-54
2022/08/20 08:56:59;;;;;;;15.63;12.88;;;22.20;99.90;;;;;;5092914;28;20093;-56
2022/08/20 08:59:30;;;;;;;14.13;11.65;;;22.30;99.90;;;;;;5109262;28;20032;-56
2022/08/20 09:01:58;;;;;;;12.93;11.63;;;22.40;99.90;;;;;;5089485;28;20891;-54
2022/08/20 09:04:32;;;;;;;13.25;11.70;;;22.40;99.90;;;;;;5111391;28;20470;-55
2022/08/20 09:07:00;;;;;;;12.43;11.13;;;22.50;99.90;;;;;;5074702;28;20123;-54
2022/08/20 09:09:29;;;;;;;13.10;11.77;;;22.50;99.90;;;;;;5111491;28;20072;-52
2022/08/20 09:12:02;;;;;;;14.35;12.25;;;22.50;99.90;;;;;;5091399;28;20028;-49
2022/08/20 09:14:27;;;;;;;14.70;12.90;;;22.50;99.90;;;;;;5111031;28;20055;-53
2022/08/20 09:16:53;;;;;;;13.38;12.07;;;22.50;99.90;;;;;;5091195;28;20495;-53
2022/08/20 09:19:18;;;;;;;14.82;13.10;;;22.50;99.90;;;;;;5110902;28;20056;-56
2022/08/20 09:21:44;;;;;;;13.90;12.52;;;22.60;99.90;;;;;;5089599;28;20032;-50
2022/08/20 09:24:09;;;;;;;13.73;12.32;;;22.60;99.90;;;;;;5111216;28;20024;-52
2022/08/20 09:26:35;;;;;;;15.38;13.38;;;22.60;99.90;;;;;;5090853;28;20032;-54
2022/08/20 09:29:00;;;;;;;11.65;10.50;;;22.60;99.90;;;;;;5108139;28;20058;-54
2022/08/20 09:31:26;;;;;;;15.02;12.57;;;22.60;99.90;;;;;;5091124;28;20036;-53
2022/08/20 09:33:52;;;;;;;13.77;12.30;;;22.60;99.90;;;;;;5107447;28;20415;-56
2022/08/20 09:36:17;;;;;;;13.43;12.02;;;22.50;99.90;;;;;;5089332;28;20020;-57
2022/08/20 09:38:43;;;;;;;14.77;13.20;;;22.60;99.90;;;;;;5108256;28;20040;-53
2022/08/20 09:41:08;;;;;;;16.33;14.63;;;22.60;99.90;;;;;;5108644;28;20038;-52
2022/08/20 09:43:34;;;;;;;17.33;14.82;;;22.60;99.90;;;;;;5088180;28;20195;-52
2022/08/20 09:45:59;;;;;;;11.52;10.40;;;22.60;99.90;;;;;;5109692;28;20034;-51
2022/08/20 09:48:25;;;;;;;14.98;13.15;;;22.60;99.90;;;;;;5088717;28;20450;-55
2022/08/20 09:50:50;;;;;;;16.27;14.52;;;22.60;99.90;;;;;;5109916;28;20043;-55
2022/08/20 09:53:18;;;;;;;13.90;12.40;;;22.60;99.90;;;;;;5088896;28;20042;-54
2022/08/20 09:55:45;;;;;;;20.08;15.30;;;22.70;99.90;;;;;;5110049;28;20031;-51
2022/08/20 09:58:19;;;;;;;15.23;13.63;;;22.60;99.90;;;;;;5087590;27;20107;-55
2022/08/20 10:00:45;;;;;;;13.82;12.38;;;22.70;99.90;;;;;;5086904;28;20527;-53
2022/08/20 10:03:11;;;;;;;14.38;12.88;;;22.80;99.90;;;;;;5083778;28;20024;-55
2022/08/20 10:05:36;;;;;;;14.50;12.77;;;22.80;99.90;;;;;;5092926;28;20028;-53
2022/08/20 10:08:07;;;;;;;14.95;12.80;;;22.90;99.90;;;;;;5098543;28;20035;-55
2022/08/20 10:10:32;;;;;;;14.88;13.27;;;22.90;99.90;;;;;;5087456;28;20060;-51
2022/08/20 10:12:58;;;;;;;13.73;11.93;;;23.00;99.90;;;;;;5102948;28;20051;-51
2022/08/20 10:15:24;;;;;;;14.02;12.52;;;23.10;99.90;;;;;;5106748;28;20032;-50
2022/08/20 10:17:49;;;;;;;16.48;14.63;;;23.20;99.90;;;;;;5090953;28;20518;-51
2022/08/20 10:20:17;;;;;;;17.10;15.30;;;23.20;99.90;;;;;;5106665;28;20039;-56
2022/08/20 10:22:42;;;;;;;16.88;13.27;;;23.30;99.90;;;;;;5083897;28;20704;-55
2022/08/20 10:25:08;;;;;;;14.07;12.65;;;23.40;99.90;;;;;;5091861;28;20516;-53
2022/08/20 10:27:33;;;;;;;15.63;13.35;;;23.40;99.90;;;;;;5106856;28;20035;-53
2022/08/20 10:29:59;;;;;;;14.60;13.07;;;23.40;99.90;;;;;;5109849;28;20111;-53
2022/08/20 10:32:24;;;;;;;16.67;13.73;;;23.40;99.90;;;;;;5091800;28;20016;-55
2022/08/20 10:34:50;;;;;;;15.20;13.02;;;23.40;99.90;;;;;;5108910;28;20112;-57
2022/08/20 10:37:18;;;;;;;15.70;13.15;;;23.40;99.90;;;;;;5090641;28;20043;-53
2022/08/20 10:39:44;;;;;;;12.98;10.23;;;23.50;99.90;;;;;;5109523;28;20387;-55
2022/08/20 10:42:09;;;;;;;14.73;11.85;;;23.50;99.70;;;;;;5089633;28;20028;-55
2022/08/20 10:44:35;;;;;;;14.88;13.20;;;23.50;99.40;;;;;;5109578;28;20080;-55
2022/08/20 10:47:33;;;;;;;13.73;11.90;;;23.60;98.70;;;;;;5087929;28;20043;-55
2022/08/20 10:50:00;;;;;;;14.88;13.27;;;23.60;96.20;;;;;;5084273;28;20537;-57
2022/08/20 10:52:27;;;;;;;14.63;12.63;;;23.50;98.60;;;;;;5087870;28;20047;-55
2022/08/20 10:54:53;;;;;;;13.60;12.20;;;23.50;97.90;;;;;;5090739;28;20035;-55
2022/08/20 10:57:21;;;;;;;13.45;11.70;;;23.50;98.00;;;;;;5103064;28;20578;-50
2022/08/20 10:59:49;;;;;;;12.93;11.73;;;23.50;97.60;;;;;;5098846;28;20019;-57
2022/08/20 11:02:16;;;;;;;14.07;12.27;;;23.60;97.50;;;;;;5086740;28;20080;-51
2022/08/20 11:04:42;;;;;;;12.10;10.88;;;23.60;97.40;;;;;;5092914;28;20040;-53
2022/08/20 11:07:26;;;;;;;13.55;12.15;;;23.60;97.00;;;;;;5098635;28;20043;-54
2022/08/20 11:09:51;;;;;;;15.23;12.98;;;23.60;96.20;;;;;;5106159;28;20035;-53
2022/08/20 11:12:18;;;;;;;17.05;12.98;;;23.60;96.20;;;;;;5086901;28;20092;-54
2022/08/20 11:14:45;;;;;;;14.13;12.27;;;23.60;95.90;;;;;;5099401;28;20783;-53
2022/08/20 11:17:11;;;;;;;16.08;14.23;;;23.60;96.20;;;;;;5104227;28;20028;-52
2022/08/20 11:19:41;;;;;;;14.73;13.23;;;23.70;96.20;;;;;;5090531;28;20093;-55
2022/08/20 11:22:07;;;;;;;14.85;13.35;;;23.70;95.70;;;;;;5096447;28;20031;-54
2022/08/20 11:24:32;;;;;;;14.20;12.70;;;23.80;95.90;;;;;;5100220;28;20108;-54
2022/08/20 11:26:58;;;;;;;16.25;14.02;;;23.90;95.70;;;;;;5100411;28;20421;-52
2022/08/20 11:29:23;;;;;;;16.15;14.13;;;23.90;94.50;;;;;;5089872;28;20043;-53
2022/08/20 11:31:50;;;;;;;17.25;14.27;;;23.90;94.70;;;;;;5106902;28;20635;-53
2022/08/20 11:34:15;;;;;;;16.00;14.32;;;23.90;94.30;;;;;;5067609;28;20063;-55
2022/08/20 11:36:41;;;;;;;17.65;13.43;;;23.90;94.00;;;;;;5106133;28;20498;-53
2022/08/20 11:39:07;;;;;;;16.50;12.10;;;23.90;93.20;;;;;;5075181;28;20071;-53
2022/08/20 11:41:32;;;;;;;15.00;12.43;;;23.90;93.20;;;;;;5106023;28;20124;-53
2022/08/20 11:43:58;;;;;;;17.83;13.73;;;23.90;93.10;;;;;;5084526;28;20043;-54
2022/08/20 11:46:23;;;;;;;13.80;12.35;;;23.80;93.10;;;;;;5106644;28;20091;-53
2022/08/20 11:48:49;;;;;;;14.15;12.63;;;23.80;92.80;;;;;;5098393;28;20034;-53
2022/08/20 11:51:14;;;;;;;15.23;13.63;;;23.80;92.60;;;;;;5105277;28;20028;-53
2022/08/20 11:53:40;;;;;;;15.98;13.50;;;23.80;92.20;;;;;;5085814;28;20566;-54
2022/08/20 11:56:05;;;;;;;14.00;12.50;;;23.70;92.10;;;;;;5090914;28;20031;-53
2022/08/20 11:58:32;;;;;;;15.27;12.43;;;23.70;92.40;;;;;;5104528;28;20050;-55
2022/08/20 12:00:58;;;;;;;13.75;12.38;;;23.80;92.40;;;;;;5084461;28;20040;-52
2022/08/20 12:03:23;;;;;;;14.23;12.77;;;23.80;90.60;;;;;;5104149;28;20040;-53
2022/08/20 12:05:49;;;;;;;12.45;11.25;;;23.80;91.70;;;;;;5087250;28;20467;-51
2022/08/20 12:08:15;;;;;;;13.90;11.55;;;23.80;92.10;;;;;;5104353;28;20023;-55
2022/08/20 12:10:41;;;;;;;12.65;11.35;;;23.80;91.20;;;;;;5087273;28;20546;-52
2022/08/20 12:13:07;;;;;;;12.95;11.65;;;23.80;91.10;;;;;;5104515;28;20110;-56
2022/08/20 12:15:35;;;;;;;11.75;10.55;;;23.80;90.60;;;;;;5106884;28;20020;-51
2022/08/20 12:18:04;;;;;;;12.45;11.10;;;23.90;90.90;;;;;;5091275;28;20030;-54
2022/08/20 12:20:29;;;;;;;10.63;9.52;;;23.90;89.70;;;;;;5108472;28;20032;-56
2022/08/20 12:22:56;;;;;;;11.10;9.93;;;23.90;89.40;;;;;;5094729;28;20113;-51
2022/08/20 12:25:22;;;;;;;10.75;9.30;;;23.90;88.50;;;;;;5110814;28;20107;-55
2022/08/20 12:27:47;;;;;;;11.10;10.02;;;24.00;88.00;;;;;;5092885;28;20135;-50
2022/08/20 12:30:18;;;;;;;11.07;9.93;;;23.90;88.20;;;;;;5110868;28;20031;-55
2022/08/20 12:32:44;;;;;;;11.90;10.20;;;24.00;88.60;;;;;;5075025;28;20027;-52
2022/08/20 12:35:11;;;;;;;13.52;9.48;;;24.00;87.70;;;;;;5110946;28;20024;-53
2022/08/20 12:37:37;;;;;;;9.15;8.25;;;24.00;86.70;;;;;;5090863;28;20047;-51
2022/08/20 12:40:07;;;;;;;9.25;8.27;;;24.00;84.90;;;;;;5107729;28;20535;-56
2022/08/20 12:42:32;;;;;;;8.95;7.90;;;24.00;85.20;;;;;;5108205;28;20044;-55
2022/08/20 12:44:58;;;;;;;9.73;6.90;;;24.00;84.30;;;;;;5101061;28;20034;-53
2022/08/20 12:47:33;;;;;;;9.00;8.10;;;24.00;83.90;;;;;;5107905;28;20077;-52
2022/08/20 12:50:03;;;;;;;9.20;8.30;;;23.90;83.50;;;;;;5108805;28;20015;-54
2022/08/20 12:52:29;;;;;;;6.20;5.63;;;23.90;83.80;;;;;;5087846;28;20020;-54
2022/08/20 12:54:55;;;;;;;8.45;7.55;;;23.90;82.90;;;;;;5090121;28;20114;-55
2022/08/20 12:57:23;;;;;;;8.60;6.32;;;23.90;80.60;;;;;;5109776;28;20481;-56
2022/08/20 12:59:48;;;;;;;7.47;6.65;;;23.90;81.10;;;;;;5101400;28;20024;-55
2022/08/20 13:02:16;;;;;;;7.60;6.32;;;23.90;80.50;;;;;;5090951;28;20027;-56
2022/08/20 13:04:41;;;;;;;7.80;6.88;;;24.00;79.80;;;;;;5107723;28;20034;-55
2022/08/20 13:07:10;;;;;;;6.55;5.95;;;24.00;79.70;;;;;;5093077;28;20500;-54
2022/08/20 13:09:35;;;;;;;9.48;7.55;;;24.10;79.90;;;;;;5100431;28;20509;-64
2022/08/20 13:12:01;;;;;;;7.68;6.97;;;24.10;78.10;;;;;;5106732;28;20039;-63
2022/08/20 13:14:26;;;;;;;6.70;6.10;;;24.00;78.60;;;;;;5090209;28;20092;-63
2022/08/20 13:17:00;;;;;;;8.85;5.85;;;24.10;79.10;;;;;;5090948;28;20038;-54
2022/08/20 13:19:26;;;;;;;8.02;6.88;;;24.10;77.80;;;;;;5108113;28;20063;-60
2022/08/20 13:21:52;;;;;;;7.90;7.10;;;24.10;77.90;;;;;;5109597;27;20042;-61
2022/08/20 13:24:18;;;;;;;6.43;5.65;;;24.10;77.30;;;;;;5087988;28;20031;-60
2022/08/20 13:26:44;;;;;;;6.82;6.13;;;24.10;77.10;;;;;;5097396;28;20116;-61
2022/08/20 13:29:10;;;;;;;9.32;6.75;;;24.20;77.40;;;;;;5089998;28;20028;-61
2022/08/20 13:31:35;;;;;;;6.85;6.25;;;24.20;76.90;;;;;;5108642;28;20028;-60
2022/08/20 13:34:01;;;;;;;6.60;6.00;;;24.10;76.20;;;;;;5086968;27;20123;-61
2022/08/20 13:36:27;;;;;;;8.23;6.18;;;24.10;76.20;;;;;;5090181;28;20040;-60
2022/08/20 13:38:52;;;;;;;6.18;5.57;;;24.10;75.60;;;;;;5103788;28;20032;-61
2022/08/20 13:41:18;;;;;;;6.78;6.10;;;24.10;76.70;;;;;;5104559;28;20123;-60
2022/08/20 13:43:43;;;;;;;7.47;5.20;;;24.10;76.20;;;;;;5107649;28;20035;-61
2022/08/20 13:46:09;;;;;;;6.30;5.32;;;24.20;76.00;;;;;;5109678;28;20020;-60
2022/08/20 13:48:34;;;;;;;5.00;4.60;;;24.20;75.60;;;;;;5098990;28;20577;-60
2022/08/20 13:51:00;;;;;;;5.57;5.10;;;24.20;75.80;;;;;;5091449;28;20039;-61
2022/08/20 13:53:25;;;;;;;6.03;5.43;;;24.20;74.60;;;;;;5095059;28;20502;-60
2022/08/20 13:55:51;;;;;;;5.28;4.78;;;24.20;74.90;;;;;;5110979;28;20051;-59
2022/08/20 13:58:17;;;;;;;5.13;4.40;;;24.10;73.70;;;;;;5104962;28;20019;-61
2022/08/20 14:00:44;;;;;;;5.25;4.60;;;24.10;73.70;;;;;;5099636;28;20486;-60
2022/08/20 14:03:10;;;;;;;4.93;4.28;;;24.10;73.10;;;;;;5093778;27;20501;-60
2022/08/20 14:05:37;;;;;;;5.15;4.65;;;24.10;72.10;;;;;;5108601;28;20143;-59
2022/08/20 14:08:13;;;;;;;5.25;4.35;;;24.10;71.60;;;;;;5108754;28;20031;-60
2022/08/20 14:10:40;;;;;;;5.22;4.68;;;24.10;72.10;;;;;;5111475;28;20024;-59
2022/08/20 14:13:06;;;;;;;5.25;4.75;;;24.10;72.10;;;;;;5093026;27;20031;-61
2022/08/20 14:15:33;;;;;;;4.88;4.43;;;24.20;71.60;;;;;;5110911;28;20027;-60
2022/08/20 14:17:59;;;;;;;5.13;4.22;;;24.30;71.80;;;;;;5091756;28;20043;-60
2022/08/20 14:20:27;;;;;;;4.60;4.20;;;24.30;71.60;;;;;;5111205;28;20020;-60
2022/08/20 14:22:53;;;;;;;6.70;4.70;;;24.20;71.90;;;;;;5090440;28;20482;-60
2022/08/20 14:25:21;;;;;;;4.68;4.28;;;24.20;72.10;;;;;;5110927;28;20115;-59
2022/08/20 14:27:48;;;;;;;5.05;4.55;;;24.20;71.90;;;;;;5088997;28;20058;-60
2022/08/20 14:30:16;;;;;;;5.95;4.68;;;24.10;71.40;;;;;;5110990;28;20043;-60
2022/08/20 14:32:41;;;;;;;5.25;4.75;;;24.10;71.30;;;;;;5090658;28;20032;-60
2022/08/20 14:35:08;;;;;;;4.30;3.90;;;24.00;71.40;;;;;;5108499;28;20048;-60
2022/08/20 14:37:55;;;;;;;5.15;4.40;;;24.00;71.70;;;;;;5090497;28;20031;-60
2022/08/20 14:40:23;;;;;;;5.47;5.07;;;24.00;71.10;;;;;;5069495;28;20142;-60
2022/08/20 14:42:49;;;;;;;5.28;4.65;;;23.90;71.10;;;;;;5107171;28;20510;-60
2022/08/20 14:45:15;;;;;;;5.47;4.38;;;23.90;71.20;;;;;;5102863;28;20028;-61
2022/08/20 14:47:43;;;;;;;5.13;4.63;;;23.80;71.70;;;;;;5090145;28;20499;-60
2022/08/20 14:50:13;;;;;;;5.55;5.03;;;23.70;72.20;;;;;;5108262;28;20328;-60
2022/08/20 14:52:39;;;;;;;7.85;4.28;;;23.70;72.90;;;;;;5110455;28;20019;-60
2022/08/20 14:55:18;;;;;;;5.40;4.32;;;23.70;73.70;;;;;;5088636;28;20089;-60
2022/08/20 14:57:44;;;;;;;5.85;4.78;;;23.60;74.30;;;;;;5068573;28;20025;-60
2022/08/20 15:00:13;;;;;;;6.38;5.05;;;23.50;75.20;;;;;;5097393;28;20062;-61
2022/08/20 15:02:40;;;;;;;6.13;5.53;;;23.40;75.20;;;;;;5090032;28;20078;-60
2022/08/20 15:05:07;;;;;;;6.03;5.53;;;23.40;75.60;;;;;;5107902;28;20031;-60
2022/08/20 15:07:37;;;;;;;5.93;5.43;;;23.30;76.90;;;;;;5110274;28;20050;-59
2022/08/20 15:10:08;;;;;;;5.90;5.30;;;23.30;78.30;;;;;;5087970;28;20596;-61
2022/08/20 15:12:34;;;;;;;5.68;5.18;;;23.10;79.90;;;;;;5068423;28;20535;-60
2022/08/20 15:15:00;;;;;;;6.72;6.03;;;23.10;81.00;;;;;;5107059;28;20112;-60
2022/08/20 15:17:28;;;;;;;7.10;4.90;;;23.00;82.10;;;;;;5109974;28;20070;-60
2022/08/20 15:19:55;;;;;;;6.45;4.78;;;23.00;83.90;;;;;;5088261;28;20059;-61
2022/08/20 15:22:21;;;;;;;7.57;6.18;;;22.90;84.90;;;;;;5094439;28;20495;-61
2022/08/20 15:24:47;;;;;;;7.32;5.95;;;22.80;85.60;;;;;;5097220;28;20096;-62
2022/08/20 15:27:15;;;;;;;7.93;6.20;;;22.70;86.10;;;;;;5108360;28;20479;-62
2022/08/20 15:29:41;;;;;;;6.57;5.97;;;22.70;87.10;;;;;;5085118;28;20023;-63
2022/08/20 15:32:07;;;;;;;7.53;6.07;;;22.60;88.40;;;;;;5088645;28;20028;-63
2022/08/20 15:34:34;;;;;;;7.85;6.20;;;22.50;89.30;;;;;;5106206;28;20087;-61
2022/08/20 15:37:16;;;;;;;6.30;5.70;;;22.40;90.20;;;;;;5109085;28;20023;-62
2022/08/20 15:39:43;;;;;;;6.53;5.93;;;22.40;90.90;;;;;;5095820;28;20472;-62
2022/08/20 15:42:10;;;;;;;6.20;5.70;;;22.40;91.80;;;;;;5091898;28;20024;-62
2022/08/20 15:44:36;;;;;;;7.07;6.28;;;22.30;92.50;;;;;;5106314;28;20514;-61
2022/08/20 15:47:42;;;;;;;9.18;6.07;;;22.20;93.10;;;;;;5108665;28;20042;-62
2022/08/20 15:50:14;;;;;;;6.93;6.18;;;22.20;93.50;;;;;;5097139;28;20043;-62
2022/08/20 15:52:43;;;;;;;8.07;6.57;;;22.10;94.10;;;;;;5068530;28;20032;-62
2022/08/20 15:55:14;;;;;;;6.50;5.90;;;22.10;94.50;;;;;;5107469;28;20607;-62
2022/08/20 15:58:04;;;;;;;8.73;7.82;;;22.00;94.70;;;;;;5072482;28;20127;-62
2022/08/20 16:00:52;;;;;;;8.63;7.50;;;22.00;95.40;;;;;;5088653;28;20110;-62
2022/08/20 16:03:55;;;;;;;7.43;6.70;;;21.90;96.50;;;;;;5092415;28;20551;-61
2022/08/20 16:06:26;;;;;;;7.72;6.93;;;21.90;96.60;;;;;;5111152;28;20019;-62
2022/08/20 16:09:19;;;;;;;8.50;7.63;;;21.90;96.30;;;;;;5083589;28;20031;-62
2022/08/20 16:12:01;;;;;;;8.38;7.47;;;21.80;97.80;;;;;;5110869;28;20016;-62
2022/08/20 16:14:32;;;;;;;8.15;7.35;;;21.80;97.80;;;;;;5091330;28;20065;-62
2022/08/20 16:17:09;;;;;;;8.10;7.28;;;21.80;97.70;;;;;;5071612;28;20099;-62
2022/08/20 16:20:07;;;;;;;9.75;7.95;;;21.70;97.60;;;;;;5095191;28;20608;-62
2022/08/20 16:22:33;;;;;;;9.23;7.45;;;21.70;97.70;;;;;;5080308;28;20025;-61
2022/08/20 16:24:59;;;;;;;7.70;6.95;;;21.70;98.10;;;;;;5107001;28;20031;-62
2022/08/20 16:27:43;;;;;;;7.82;6.60;;;21.70;98.30;;;;;;5109830;28;20028;-63
2022/08/20 16:30:15;;;;;;;8.40;7.60;;;21.70;98.60;;;;;;5099929;28;20041;-62
2022/08/20 16:32:53;;;;;;;10.00;7.03;;;21.60;98.70;;;;;;5068900;28;20025;-62
2022/08/20 16:35:36;;;;;;;8.48;7.68;;;21.50;99.20;;;;;;5104026;28;20048;-61
2022/08/20 16:38:12;;;;;;;9.25;8.30;;;21.50;99.90;;;;;;5080136;28;20514;-62
2022/08/20 16:40:41;;;;;;;;;;;21.50;99.90;;;;;;5069566;28;20073;-62
2022/08/20 16:43:15;;;;;;;10.52;7.75;;;21.40;99.90;;;;;;5107677;28;20378;-62
2022/08/20 16:45:52;;;;;;;9.50;7.93;;;21.40;99.90;;;;;;5098530;28;20160;-62
2022/08/20 16:48:18;;;;;;;8.10;7.30;;;21.30;99.90;;;;;;5082016;28;20017;-61
2022/08/20 16:50:57;;;;;;;10.75;8.50;;;21.30;99.90;;;;;;5109410;28;20058;-61
2022/08/20 16:53:24;;;;;;;8.88;7.70;;;21.30;99.90;;;;;;5069508;28;20392;-62
2022/08/20 16:55:53;;;;;;;9.57;8.63;;;21.20;99.90;;;;;;5109405;28;20051;-62
2022/08/20 16:58:19;;;;;;;9.30;7.88;;;21.20;99.90;;;;;;5087149;28;20032;-62
2022/08/20 17:00:45;;;;;;;9.95;7.80;;;21.10;99.90;;;;;;5085719;28;20025;-61
2022/08/20 17:03:25;;;;;;;9.40;7.07;;;21.10;99.90;;;;;;5110657;28;20023;-62
2022/08/20 17:05:55;;;;;;;8.57;7.75;;;21.10;99.90;;;;;;5068719;28;20020;-62
2022/08/20 17:08:33;;;;;;;8.63;7.75;;;21.10;99.90;;;;;;5108417;28;20096;-61
2022/08/20 17:11:16;;;;;;;8.50;7.60;;;21.10;99.90;;;;;;5110862;27;20051;-64
2022/08/20 17:13:46;;;;;;;10.00;8.65;;;21.00;99.90;;;;;;5075301;28;20028;-64
2022/08/20 17:16:12;;;;;;;8.27;7.50;;;21.00;99.90;;;;;;5111275;28;20174;-65
2022/08/20 17:18:43;;;;;;;8.68;7.78;;;21.00;99.90;;;;;;5093425;28;20752;-64
2022/08/20 17:21:22;;;;;;;7.57;6.80;;;20.90;99.90;;;;;;5111122;28;20024;-65
2022/08/20 17:23:59;;;;;;;10.05;8.38;;;20.90;99.90;;;;;;5078154;28;20047;-64
2022/08/20 17:27:05;;;;;;;9.10;8.07;;;20.90;99.90;;;;;;5089563;28;20033;-64
2022/08/20 17:29:33;;;;;;;11.90;8.57;;;20.80;99.90;;;;;;5083063;28;20156;-64
2022/08/20 17:32:27;;;;;;;10.90;8.00;;;20.80;99.90;;;;;;5087416;28;20040;-65
2022/08/20 17:34:56;;;;;;;6.78;6.10;;;20.80;99.90;;;;;;5084108;28;20044;-64
2022/08/20 17:37:24;;;;;;;8.30;7.50;;;20.80;99.90;;;;;;5084884;28;20036;-64
2022/08/20 17:39:53;;;;;;;8.93;7.15;;;20.70;99.90;;;;;;5094433;28;20042;-65
2022/08/20 17:42:22;;;;;;;10.68;8.77;;;20.70;99.90;;;;;;5088864;28;20106;-64
2022/08/20 17:45:12;;;;;;;12.90;8.52;;;20.70;99.90;;;;;;5105854;28;20499;-65
2022/08/20 17:47:40;;;;;;;11.10;9.23;;;20.70;99.90;;;;;;5077370;28;20089;-64
2022/08/20 17:50:17;;;;;;;10.73;9.38;;;20.60;99.90;;;;;;5077717;28;20029;-65
2022/08/20 17:52:53;;;;;;;10.23;9.10;;;20.60;99.90;;;;;;5077443;28;20479;-65
2022/08/20 17:55:19;;;;;;;8.27;7.43;;;20.60;99.90;;;;;;5096921;28;20058;-64
2022/08/20 17:57:48;;;;;;;9.43;8.05;;;20.50;99.90;;;;;;5093098;28;20036;-65
2022/08/20 18:00:22;;;;;;;9.05;8.13;;;20.50;99.90;;;;;;5099983;28;20031;-64
2022/08/20 18:02:56;;;;;;;9.55;8.48;;;20.50;99.90;;;;;;5076440;28;20031;-64
2022/08/20 18:05:22;;;;;;;9.18;7.05;;;20.50;99.90;;;;;;5094997;28;20097;-64
2022/08/20 18:08:07;;;;;;;11.90;7.68;;;20.50;99.90;;;;;;5090902;28;20475;-65
2022/08/20 18:10:56;;;;;;;7.72;6.93;;;20.50;99.90;;;;;;5078672;28;20723;-64
2022/08/20 18:13:37;;;;;;;8.93;7.40;;;20.40;99.90;;;;;;5080497;28;20042;-64
2022/08/20 18:16:04;;;;;;;8.52;7.63;;;20.40;99.90;;;;;;5079525;28;20027;-65
2022/08/20 18:19:04;;;;;;;9.13;8.23;;;20.40;99.90;;;;;;5093546;28;20104;-63
2022/08/20 18:22:00;;;;;;;8.30;7.53;;;20.30;99.90;;;;;;5093477;28;20062;-64
2022/08/20 18:24:39;;;;;;;10.93;7.83;;;20.30;99.90;;;;;;5086728;28;20122;-64
2022/08/20 18:27:10;;;;;;;9.30;7.75;;;20.30;99.90;;;;;;5075668;28;20032;-65
2022/08/20 18:29:40;;;;;;;8.48;7.65;;;20.30;99.90;;;;;;5088113;28;20029;-64
2022/08/20 18:32:28;;;;;;;7.78;6.70;;;20.20;99.90;;;;;;5082501;28;20035;-65
2022/08/20 18:35:07;;;;;;;9.52;8.20;;;20.20;99.90;;;;;;5085582;28;20054;-64
2022/08/20 18:37:33;;;;;;;9.05;8.15;;;20.30;99.90;;;;;;5086286;28;20032;-65
2022/08/20 18:40:27;;;;;;;10.25;8.40;;;20.20;99.90;;;;;;5093934;28;20165;-64
2022/08/20 18:42:54;;;;;;;9.15;8.25;;;20.20;99.90;;;;;;5081160;28;20047;-64
2022/08/20 18:45:36;;;;;;;10.30;9.02;;;20.20;99.90;;;;;;5090505;28;20024;-64
2022/08/20 18:48:03;;;;;;;11.43;9.35;;;20.20;99.90;;;;;;5085981;28;20032;-66
2022/08/20 18:50:37;;;;;;;10.27;9.00;;;20.10;99.90;;;;;;5087837;28;20050;-65
2022/08/20 18:53:18;;;;;;;12.15;9.18;;;20.20;99.90;;;;;;5078343;28;20097;-65
2022/08/20 18:55:47;;;;;;;15.15;11.20;;;20.20;99.90;;;;;;5095667;28;20047;-65
2022/08/20 18:58:27;;;;;;;12.80;11.50;;;20.10;99.90;;;;;;5102355;28;20042;-65
2022/08/20 19:00:52;;;;;;;13.50;12.10;;;20.10;99.90;;;;;;5094670;28;20050;-65
2022/08/20 19:03:38;;;;;;;13.75;11.98;;;20.10;99.90;;;;;;5079414;28;20687;-64
2022/08/20 19:06:22;;;;;;;14.75;11.13;;;20.10;99.90;;;;;;5078315;28;20040;-65
2022/08/20 19:09:16;;;;;;;15.45;11.40;;;20.10;99.90;;;;;;5096276;28;20032;-65
2022/08/20 19:12:06;;;;;;;13.55;11.32;;;20.10;99.90;;;;;;5086148;28;20494;-65
2022/08/20 19:14:57;;;;;;;13.55;10.10;;;20.10;99.90;;;;;;5089078;28;20709;-65
2022/08/20 19:17:43;;;;;;;13.00;9.80;;;20.00;99.90;;;;;;5076874;28;20499;-64
2022/08/20 19:20:25;;;;;;;11.57;10.38;;;20.00;99.90;;;;;;5092484;28;20114;-64
2022/08/20 19:22:54;;;;;;;14.02;12.02;;;20.00;99.90;;;;;;5080195;28;20404;-61
2022/08/20 19:25:29;;;;;;;48.85;40.47;;;20.00;99.90;;;;;;5092355;28;20039;-66
2022/08/20 19:27:58;;;;;;;39.60;33.28;;;20.00;99.90;;;;;;5084874;28;20032;-66
2022/08/20 19:30:39;;;;;;;31.00;24.27;;;20.00;99.90;;;;;;5089874;28;20031;-65
2022/08/20 19:33:06;;;;;;;20.05;17.58;;;20.00;99.90;;;;;;5097502;28;20706;-65
2022/08/20 19:35:33;;;;;;;19.27;16.73;;;20.00;99.90;;;;;;5092239;28;20604;-65
2022/08/20 19:38:01;;;;;;;20.45;16.33;;;20.00;99.90;;;;;;5093427;28;20361;-65
2022/08/20 19:40:31;;;;;;;13.70;11.95;;;20.00;99.90;;;;;;5090054;28;20024;-62
2022/08/20 19:43:00;;;;;;;14.23;11.52;;;20.00;99.90;;;;;;5076956;28;20082;-63
2022/08/20 19:45:30;;;;;;;12.25;10.90;;;20.00;99.90;;;;;;5095940;28;20047;-62
2022/08/20 19:48:18;;;;;;;11.38;10.00;;;20.00;99.90;;;;;;5075605;28;20515;-63
2022/08/20 19:50:53;;;;;;;13.88;11.23;;;20.00;99.90;;;;;;5080688;28;20535;-63
2022/08/20 19:53:31;;;;;;;12.40;11.10;;;20.00;99.90;;;;;;5077628;28;20107;-59
2022/08/20 19:56:01;;;;;;;11.57;10.35;;;19.90;99.90;;;;;;5082843;28;20036;-59
2022/08/20 19:58:28;;;;;;;14.32;11.73;;;19.90;99.90;;;;;;5097026;28;20118;-59
2022/08/20 20:00:55;;;;;;;15.13;11.35;;;19.90;99.90;;;;;;5097888;28;20035;-59
2022/08/20 20:03:24;;;;;;;13.90;12.10;;;19.90;99.90;;;;;;5095158;28;20055;-59
2022/08/20 20:05:59;;;;;;;13.02;11.32;;;19.90;99.90;;;;;;5102003;28;20442;-59
2022/08/20 20:08:36;;;;;;;16.05;12.95;;;19.90;99.90;;;;;;5088284;28;20032;-59
2022/08/20 20:11:02;;;;;;;17.58;12.95;;;19.90;99.90;;;;;;5073991;28;20115;-59
2022/08/20 20:13:30;;;;;;;16.55;12.70;;;19.90;99.90;;;;;;5087296;28;20120;-59
2022/08/20 20:15:58;;;;;;;14.57;12.75;;;19.90;99.90;;;;;;5094954;28;20035;-59
2022/08/20 20:18:27;;;;;;;16.10;13.13;;;19.90;99.90;;;;;;5082041;28;20064;-60
2022/08/20 20:21:06;;;;;;;13.98;12.48;;;19.80;99.90;;;;;;5100125;28;20476;-59
2022/08/20 20:23:32;;;;;;;14.38;12.88;;;19.80;99.90;;;;;;5079117;28;20492;-59
2022/08/20 20:26:06;;;;;;;16.75;12.98;;;19.80;99.90;;;;;;5096685;28;20089;-59